Portada
METAR-TAF:

METAR-TAF

Aeroports :

Vlissingen, Països Baixos

latitud: 51-27N, longitud: 3-36E, altitud: 10 m

Observació

L'informe es va fer fa 26 minuts, a les 19:55 UTC
Vent 5 kt del Nord-Oest
Temperatura 17°C
Humitat 77%
Pressió 1017 hPa
Visibilitat 10 km o més

METAR: EHFS 161955Z AUTO 32005KT 9999 NSC 17/13 Q1017 W///H///

Hora: 22:21 (20:21 UTC)


TAF: manca

Observacions i pronòstics meteorològics de més de 4000 aeroports (METAR i TAF).

Les estacions disponibles són els punts grocs i vermells al mapa.

Posi el ratolí al punt desitjat per veure el nom de l'estació.

Feu clic per veure les observacions i els pronòstics meteorològics.

Per canviar el mapa: feu clic els botons verds amb una creu de color negre per apropar; al botó verd amb un guió per allunyar la imatge; o en les fletxes verdes per a mapes adjacents.


METAR-TAF: